createdAt,value
2019-03-03T00:00:28.409Z,60.11
2019-03-03T00:05:31.867Z,60.34
2019-03-03T00:10:33.617Z,61.26
2019-03-03T00:15:35.475Z,61.05
2019-03-03T00:20:37.271Z,61.10
2019-03-03T00:25:39.935Z,61.38
2019-03-03T00:30:41.871Z,61.06
2019-03-03T00:35:43.448Z,61.31
2019-03-03T00:40:50.883Z,61.02
2019-03-03T00:46:10.901Z,61.13
2019-03-03T00:51:32.613Z,60.39
2019-03-03T00:56:36.143Z,60.34
2019-03-03T01:01:37.719Z,61.06
2019-03-03T01:06:41.508Z,61.39
2019-03-03T01:11:48.088Z,61.68
2019-03-03T01:16:57.453Z,60.35
2019-03-03T01:22:01.011Z,60.18
2019-03-03T01:27:03.890Z,60.29
2019-03-03T01:32:05.652Z,59.42
2019-03-03T01:37:07.203Z,59.62
2019-03-03T01:42:08.756Z,59.25
2019-03-03T01:47:10.310Z,59.31
2019-03-03T01:52:12.259Z,59.30
2019-03-03T01:57:13.997Z,59.46
2019-03-03T02:02:16.148Z,59.04
2019-03-03T02:07:17.904Z,59.45
2019-03-03T02:12:19.759Z,60.01
2019-03-03T02:17:21.465Z,60.19
2019-03-03T02:22:23.124Z,60.69
2019-03-03T02:27:24.798Z,60.61
2019-03-03T02:32:26.413Z,61.01
2019-03-03T02:37:27.978Z,60.83
2019-03-03T02:42:29.628Z,60.90
2019-03-03T02:47:31.182Z,61.06
2019-03-03T02:52:32.778Z,60.73
2019-03-03T02:57:34.768Z,61.27
2019-03-03T03:02:40.920Z,60.92
2019-03-03T03:07:59.449Z,60.78
2019-03-03T03:13:03.064Z,60.80
2019-03-03T03:18:06.518Z,60.97
2019-03-03T03:23:09.979Z,61.50
2019-03-03T03:28:13.496Z,62.08
2019-03-03T03:33:17.840Z,62.23
2019-03-03T03:38:30.020Z,61.74
2019-03-03T03:43:50.255Z,61.42
2019-03-03T03:48:57.927Z,61.39
2019-03-03T03:54:14.732Z,62.29
2019-03-03T03:59:22.403Z,62.10
2019-03-03T04:04:34.800Z,62.60
2019-03-03T04:09:46.916Z,62.74
2019-03-03T04:14:57.195Z,62.35
2019-03-03T04:19:58.958Z,62.43
2019-03-03T04:25:08.287Z,63.10
2019-03-03T04:30:18.095Z,63.38
2019-03-03T04:35:24.473Z,63.76
2019-03-03T04:40:30.872Z,64.30
2019-03-03T04:45:51.111Z,64.55
2019-03-03T04:50:55.694Z,64.54
2019-03-03T04:56:11.339Z,64.34
2019-03-03T05:01:19.397Z,64.22
2019-03-03T05:06:28.759Z,64.44
2019-03-03T05:12:20.368Z,64.30
2019-03-03T05:17:31.196Z,64.11
2019-03-03T05:22:32.753Z,64.53
2019-03-03T05:27:34.320Z,64.00
2019-03-03T05:32:36.073Z,64.25
2019-03-03T05:37:37.688Z,63.98
2019-03-03T05:42:39.235Z,64.07
2019-03-03T05:47:40.787Z,64.10
2019-03-03T05:52:42.846Z,63.28
2019-03-03T05:57:45.328Z,64.03
2019-03-03T06:02:46.892Z,63.49
2019-03-03T06:07:48.753Z,63.22
2019-03-03T06:12:51.450Z,63.29
2019-03-03T06:17:53.059Z,63.23
2019-03-03T06:22:55.021Z,63.04
2019-03-03T06:27:56.567Z,63.29
2019-03-03T06:32:58.522Z,63.08
2019-03-03T06:38:00.142Z,62.87
2019-03-03T06:43:01.716Z,62.75
2019-03-03T06:48:03.375Z,62.61
2019-03-03T06:53:04.916Z,61.36
2019-03-03T06:58:06.530Z,60.61
2019-03-03T07:03:08.208Z,60.04
2019-03-03T07:08:09.790Z,59.95
2019-03-03T07:13:11.355Z,60.75
2019-03-03T07:18:12.924Z,60.15
2019-03-03T07:23:14.484Z,61.32
2019-03-03T07:28:17.298Z,61.64
2019-03-03T07:33:21.022Z,61.74
2019-03-03T07:38:22.573Z,61.81
2019-03-03T07:43:24.129Z,61.49
2019-03-03T07:48:25.680Z,62.29
2019-03-03T07:53:27.259Z,62.57
2019-03-03T07:58:28.847Z,61.58
2019-03-03T08:03:30.460Z,61.83
2019-03-03T08:08:32.217Z,60.88
2019-03-03T08:13:34.875Z,61.26
2019-03-03T08:18:36.656Z,60.04
2019-03-03T08:23:38.516Z,61.11
2019-03-03T08:28:40.084Z,59.52
2019-03-03T08:33:41.743Z,59.82
2019-03-03T08:38:43.292Z,59.75
2019-03-03T08:43:49.649Z,59.04
2019-03-03T08:48:53.099Z,59.60
2019-03-03T08:54:08.284Z,59.48
2019-03-03T08:59:20.696Z,60.05
2019-03-03T09:04:42.427Z,59.53
2019-03-03T09:09:51.772Z,59.83
2019-03-03T09:15:01.343Z,59.86
2019-03-03T09:20:15.164Z,61.41
2019-03-03T09:25:30.776Z,60.50
2019-03-03T09:30:46.227Z,59.99
2019-03-03T09:35:53.333Z,57.66
2019-03-03T09:40:56.789Z,57.21
2019-03-03T09:45:58.350Z,58.87
2019-03-03T09:51:08.765Z,57.83
2019-03-03T09:56:15.153Z,58.17
2019-03-03T10:01:24.735Z,59.77
2019-03-03T10:06:38.521Z,59.86
2019-03-03T10:11:40.073Z,61.15
2019-03-03T10:16:46.218Z,61.89
2019-03-03T10:21:49.673Z,63.00
2019-03-03T10:26:53.138Z,63.41
2019-03-03T10:32:09.087Z,60.66
2019-03-03T10:37:14.425Z,60.04
2019-03-03T10:42:18.232Z,58.33
2019-03-03T10:47:19.989Z,58.10
2019-03-03T10:52:29.500Z,58.27
2019-03-03T10:57:50.058Z,59.38
2019-03-03T11:03:02.562Z,61.35
2019-03-03T11:08:10.180Z,62.29
2019-03-03T11:13:24.288Z,62.67
2019-03-03T11:18:36.824Z,63.70
2019-03-03T11:23:40.486Z,63.58
2019-03-03T11:28:43.961Z,63.59
2019-03-03T11:33:47.528Z,63.47
2019-03-03T11:38:56.999Z,63.93
2019-03-03T11:44:00.862Z,63.86
2019-03-03T11:49:22.834Z,63.06
2019-03-03T11:54:38.286Z,63.13
2019-03-03T11:59:44.651Z,63.00
2019-03-03T12:04:59.788Z,62.34
2019-03-03T12:10:10.642Z,62.48
2019-03-03T12:15:17.351Z,62.72
2019-03-03T12:20:38.040Z,62.28
2019-03-03T12:25:44.372Z,61.36
2019-03-03T12:30:47.950Z,61.05
2019-03-03T12:35:51.443Z,59.31
2019-03-03T12:40:56.921Z,59.45
2019-03-03T12:46:01.194Z,59.35
2019-03-03T12:51:04.849Z,58.47
2019-03-03T12:56:08.335Z,59.76
2019-03-03T13:01:14.411Z,57.98
2019-03-03T13:06:36.004Z,59.03
2019-03-03T13:11:52.011Z,58.32
2019-03-03T13:17:13.692Z,58.85
2019-03-03T13:22:33.915Z,58.20
2019-03-03T13:27:49.766Z,56.47
2019-03-03T13:32:53.523Z,57.70
2019-03-03T13:38:06.230Z,58.79
2019-03-03T13:43:07.888Z,58.47
2019-03-03T13:48:09.487Z,59.31
2019-03-03T13:53:11.740Z,58.79
2019-03-03T13:58:13.488Z,56.29
2019-03-03T14:03:15.391Z,57.62
2019-03-03T14:08:17.143Z,55.19
2019-03-03T14:13:18.735Z,55.91
2019-03-03T14:18:20.377Z,56.67
2019-03-03T14:23:22.045Z,56.99
2019-03-03T14:28:23.909Z,57.91
2019-03-03T14:33:25.481Z,58.31
2019-03-03T14:38:27.024Z,58.28
2019-03-03T14:43:28.660Z,59.67
2019-03-03T14:48:30.251Z,60.17
2019-03-03T14:53:31.825Z,60.90
2019-03-03T14:58:33.526Z,61.22
2019-03-03T15:03:35.212Z,60.72
2019-03-03T15:08:36.785Z,61.18
2019-03-03T15:13:38.337Z,60.79
2019-03-03T15:18:40.156Z,61.38
2019-03-03T15:23:41.773Z,61.02
2019-03-03T15:28:43.429Z,60.75
2019-03-03T15:33:44.983Z,61.00
2019-03-03T15:38:46.559Z,61.30
2019-03-03T15:43:48.167Z,61.45
2019-03-03T15:48:49.729Z,61.70
2019-03-03T15:53:51.653Z,62.11
2019-03-03T15:58:55.838Z,61.69
2019-03-03T16:03:56.750Z,61.86
2019-03-03T16:08:58.328Z,62.58
2019-03-03T16:13:59.891Z,62.02
2019-03-03T16:19:01.778Z,62.47
2019-03-03T16:24:03.542Z,62.91
2019-03-03T16:29:05.120Z,63.10
2019-03-03T16:34:06.725Z,63.94
2019-03-03T16:39:08.604Z,64.68
2019-03-03T16:44:10.419Z,65.47
2019-03-03T16:49:11.982Z,65.87
2019-03-03T16:54:13.657Z,66.08
2019-03-03T16:59:15.274Z,66.18
2019-03-03T17:04:16.860Z,65.96
2019-03-03T17:09:19.022Z,66.23
2019-03-03T17:14:20.622Z,66.34
2019-03-03T17:19:22.178Z,66.23
2019-03-03T17:24:23.732Z,65.88
2019-03-03T17:29:25.301Z,66.27
2019-03-03T17:34:26.877Z,66.41
2019-03-03T17:39:28.435Z,66.62
2019-03-03T17:44:30.208Z,66.21
2019-03-03T17:49:31.784Z,66.03
2019-03-03T17:54:34.772Z,65.94
2019-03-03T17:59:36.353Z,66.46
2019-03-03T18:04:37.991Z,66.53
2019-03-03T18:09:40.066Z,66.55
2019-03-03T18:14:41.656Z,66.12
2019-03-03T18:19:43.232Z,65.88
2019-03-03T18:24:44.924Z,65.60
2019-03-03T18:29:47.633Z,65.45
2019-03-03T18:34:51.417Z,65.53
2019-03-03T18:39:53.036Z,65.50
2019-03-03T18:44:55.821Z,65.28
2019-03-03T18:49:59.143Z,65.18
2019-03-03T18:55:11.208Z,65.48
2019-03-03T19:00:22.532Z,65.38
2019-03-03T19:05:24.729Z,65.57
2019-03-03T19:10:33.318Z,65.62
2019-03-03T19:15:35.346Z,65.02
2019-03-03T19:20:37.071Z,65.44
2019-03-03T19:25:38.600Z,65.58
2019-03-03T19:30:40.203Z,65.62
2019-03-03T19:35:42.172Z,65.82
2019-03-03T19:40:44.044Z,65.64
2019-03-03T19:45:56.942Z,65.78
2019-03-03T19:50:58.738Z,65.76
2019-03-03T19:56:00.330Z,65.39
2019-03-03T20:01:03.573Z,65.01
2019-03-03T20:06:06.588Z,64.78
2019-03-03T20:11:08.273Z,64.52
2019-03-03T20:16:09.932Z,64.48
2019-03-03T20:21:11.549Z,64.22
2019-03-03T20:26:13.270Z,64.44
2019-03-03T20:31:14.914Z,64.52
2019-03-03T20:36:16.581Z,64.42
2019-03-03T20:41:18.136Z,64.47
2019-03-03T20:46:20.186Z,64.48
2019-03-03T20:51:21.965Z,64.45
2019-03-03T20:56:23.529Z,64.01
2019-03-03T21:01:25.144Z,63.78
2019-03-03T21:06:26.746Z,63.25
2019-03-03T21:11:28.303Z,63.51
2019-03-03T21:16:29.856Z,63.71
2019-03-03T21:21:31.712Z,63.65
2019-03-03T21:26:33.302Z,63.59
2019-03-03T21:31:34.998Z,63.63
2019-03-03T21:36:36.540Z,63.85
2019-03-03T21:41:38.097Z,63.62
2019-03-03T21:46:39.789Z,63.84
2019-03-03T21:51:42.640Z,63.21
2019-03-03T21:56:44.326Z,63.17
2019-03-03T22:01:46.378Z,63.13
2019-03-03T22:06:50.597Z,63.64
2019-03-03T22:11:52.447Z,63.95
2019-03-03T22:16:54.312Z,63.92
2019-03-03T22:21:56.056Z,63.73
2019-03-03T22:26:57.703Z,63.57
2019-03-03T22:31:59.402Z,63.30
2019-03-03T22:37:00.973Z,63.40
2019-03-03T22:42:02.623Z,63.56
2019-03-03T22:47:04.222Z,63.40
2019-03-03T22:52:05.897Z,63.30
2019-03-03T22:57:07.463Z,63.30
2019-03-03T23:02:12.205Z,63.28
2019-03-03T23:07:22.375Z,63.29
2019-03-03T23:13:01.778Z,62.90
2019-03-03T23:18:40.797Z,62.89
2019-03-03T23:24:21.025Z,63.05
2019-03-03T23:29:22.593Z,62.30
2019-03-03T23:34:24.211Z,62.25
2019-03-03T23:39:25.793Z,62.70
2019-03-03T23:44:27.353Z,63.30
2019-03-03T23:49:29.005Z,63.31
2019-03-03T23:54:30.559Z,63.54
2019-03-03T23:59:32.124Z,63.61
